Time;durP1;ratioP1;P1;durP2;ratioP2;P2;SDS_P1;SDS_P2;PMS_P1;PMS_P2;Temp;Humidity;BMP_temperature;BMP_pressure;BME280_temperature;BME280_humidity;BME280_pressure;Samples;Min_cycle;Max_cycle;Signal;HPM_P1;HPM_P2
2024/01/02 00:01:29;;;;;;;11.27;2.53;;;5.70;99.90;;;;;;5112849;28;20046;-84
2024/01/02 00:03:55;;;;;;;9.52;2.50;;;5.80;99.90;;;;;;5112984;28;20073;-84
2024/01/02 00:06:21;;;;;;;11.90;2.90;;;5.80;99.90;;;;;;5094340;28;20055;-84
2024/01/02 00:08:47;;;;;;;15.70;2.95;;;5.00;99.90;;;;;;5112704;28;20399;-84
2024/01/02 00:11:13;;;;;;;13.52;2.42;;;5.00;99.90;;;;;;5093883;28;20080;-85
2024/01/02 00:13:39;;;;;;;12.23;2.50;;;5.50;99.90;;;;;;5094698;28;20056;-84
2024/01/02 00:16:05;;;;;;;10.15;2.85;;;5.60;99.90;;;;;;5114862;28;20479;-84
2024/01/02 00:18:30;;;;;;;16.98;2.95;;;5.10;99.90;;;;;;5116670;28;20044;-84
2024/01/02 00:20:56;;;;;;;12.07;2.88;;;5.00;99.90;;;;;;5098539;28;20039;-84
2024/01/02 00:23:22;;;;;;;13.73;2.53;;;5.00;99.90;;;;;;5098403;28;20055;-85
2024/01/02 00:25:48;;;;;;;15.82;2.42;;;5.50;99.90;;;;;;5077380;28;20044;-84
2024/01/02 00:28:14;;;;;;;10.48;2.42;;;5.90;99.90;;;;;;5094930;28;20166;-85
2024/01/02 00:30:40;;;;;;;14.50;2.78;;;6.00;99.90;;;;;;5094980;28;20467;-84
2024/01/02 00:33:08;;;;;;;11.48;2.22;;;5.10;99.90;;;;;;5080631;28;20043;-84
2024/01/02 00:35:34;;;;;;;16.20;2.78;;;5.10;99.90;;;;;;5098456;28;20100;-84
2024/01/02 00:38:00;;;;;;;13.40;2.65;;;6.10;99.90;;;;;;5116386;28;20480;-84
2024/01/02 00:40:26;;;;;;;17.00;2.85;;;5.50;99.90;;;;;;5116604;28;20088;-84
2024/01/02 00:42:52;;;;;;;17.35;2.65;;;6.00;99.90;;;;;;5097971;28;20051;-84
2024/01/02 00:45:18;;;;;;;11.07;2.50;;;5.40;99.90;;;;;;5116377;28;20092;-85
2024/01/02 00:47:44;;;;;;;10.57;2.85;;;5.30;99.90;;;;;;5097477;28;20046;-86
2024/01/02 00:50:10;;;;;;;12.65;3.35;;;5.50;99.90;;;;;;5097798;28;20051;-84
2024/01/02 00:52:35;;;;;;;13.52;2.60;;;5.20;99.90;;;;;;5080814;28;20043;-84
2024/01/02 00:55:05;;;;;;;15.63;2.60;;;5.10;99.90;;;;;;5116143;28;20428;-84
2024/01/02 00:57:31;;;;;;;10.68;2.50;;;5.20;99.90;;;;;;5081337;28;20040;-85
2024/01/02 00:59:58;;;;;;;16.88;2.88;;;6.10;99.90;;;;;;5077353;28;20055;-84
2024/01/02 01:02:24;;;;;;;16.80;2.70;;;4.40;99.90;;;;;;5095486;28;20408;-84
2024/01/02 01:04:50;;;;;;;11.52;2.90;;;5.30;99.90;;;;;;5094257;28;20040;-84
2024/01/02 01:07:15;;;;;;;10.35;2.65;;;5.60;99.90;;;;;;5096826;28;20059;-85
2024/01/02 01:09:41;;;;;;;17.83;2.72;;;6.10;99.90;;;;;;5115800;28;20052;-84
2024/01/02 01:12:08;;;;;;;10.10;1.75;;;6.20;99.90;;;;;;5097675;28;20377;-84
2024/01/02 01:14:34;;;;;;;9.10;2.75;;;5.90;99.90;;;;;;5097478;28;20500;-84
2024/01/02 01:17:00;;;;;;;11.93;2.50;;;5.10;99.90;;;;;;5110599;27;20054;-84
2024/01/02 01:19:26;;;;;;;10.60;2.63;;;6.30;99.90;;;;;;5116961;27;20051;-84
2024/01/02 01:21:52;;;;;;;8.07;1.83;;;5.60;99.90;;;;;;5105247;27;20062;-84
2024/01/02 01:24:18;;;;;;;8.23;1.70;;;5.60;99.90;;;;;;5117182;27;20039;-84
2024/01/02 01:26:45;;;;;;;9.57;1.95;;;5.60;99.90;;;;;;5134958;27;20043;-84
2024/01/02 01:29:12;;;;;;;11.32;1.50;;;6.10;99.90;;;;;;5135980;27;20047;-84
2024/01/02 01:31:38;;;;;;;9.05;1.65;;;5.90;99.90;;;;;;5117503;27;20062;-84
2024/01/02 01:34:03;;;;;;;7.63;1.73;;;5.70;99.90;;;;;;5135934;27;20144;-84
2024/01/02 01:36:29;;;;;;;14.18;2.63;;;6.00;99.90;;;;;;5115279;27;20122;-84
2024/01/02 01:38:55;;;;;;;7.78;1.30;;;5.90;99.90;;;;;;5097295;28;20403;-84
2024/01/02 01:41:21;;;;;;;9.93;1.63;;;5.50;99.90;;;;;;5097225;28;20043;-84
2024/01/02 01:43:47;;;;;;;7.05;1.55;;;6.20;99.90;;;;;;5115279;28;20048;-85
2024/01/02 01:46:14;;;;;;;12.05;2.55;;;5.30;99.90;;;;;;5097197;28;20150;-85
2024/01/02 01:48:40;;;;;;;7.03;1.38;;;5.40;99.90;;;;;;5096050;28;20623;-85
2024/01/02 01:51:07;;;;;;;8.50;1.85;;;6.00;99.90;;;;;;5096824;28;20073;-86
2024/01/02 01:53:33;;;;;;;10.13;1.58;;;6.40;99.90;;;;;;5096641;28;20051;-84
2024/01/02 01:55:59;;;;;;;15.38;1.67;;;5.40;99.90;;;;;;5123777;27;20031;-86
2024/01/02 01:58:27;;;;;;;11.35;1.50;;;5.50;99.90;;;;;;5135486;27;20039;-85
2024/01/02 02:00:52;;;;;;;11.27;1.35;;;6.30;99.90;;;;;;5135305;27;20057;-84
2024/01/02 02:03:19;;;;;;;10.45;1.60;;;6.00;99.90;;;;;;5104417;28;20043;-84
2024/01/02 02:05:45;;;;;;;11.18;1.67;;;5.50;99.90;;;;;;5114976;28;20065;-84
2024/01/02 02:08:12;;;;;;;11.45;1.50;;;5.50;99.90;;;;;;5075989;28;20497;-85
2024/01/02 02:10:38;;;;;;;8.25;1.33;;;5.60;99.90;;;;;;5093319;28;20055;-84
2024/01/02 02:13:03;;;;;;;5.13;2.58;;;6.30;99.90;;;;;;5094382;28;20044;-84
2024/01/02 02:15:29;;;;;;;6.70;1.23;;;6.10;99.90;;;;;;5092202;28;20118;-84
2024/01/02 02:17:54;;;;;;;12.57;1.23;;;5.60;99.90;;;;;;5075445;28;20441;-85
2024/01/02 02:20:20;;;;;;;11.32;1.92;;;5.50;99.90;;;;;;5072387;28;20501;-85
2024/01/02 02:22:50;;;;;;;7.63;1.33;;;6.20;99.90;;;;;;5055819;28;20044;-85
2024/01/02 02:25:16;;;;;;;9.68;1.42;;;5.90;99.90;;;;;;5073861;28;20044;-85
2024/01/02 02:27:43;;;;;;;5.47;1.60;;;6.40;99.90;;;;;;5091119;28;20048;-84
2024/01/02 02:30:09;;;;;;;8.63;1.60;;;5.90;99.90;;;;;;5093792;28;20047;-85
2024/01/02 02:32:35;;;;;;;15.13;2.22;;;5.60;99.90;;;;;;5093219;28;20051;-86
2024/01/02 02:35:00;;;;;;;7.32;1.83;;;6.10;99.90;;;;;;5088700;28;20059;-85
2024/01/02 02:37:27;;;;;;;7.07;1.63;;;5.90;99.90;;;;;;5055049;28;20123;-84
2024/01/02 02:39:52;;;;;;;9.43;1.88;;;6.20;99.90;;;;;;5084912;28;20076;-85
2024/01/02 02:42:18;;;;;;;11.07;2.63;;;6.60;99.90;;;;;;5091963;28;20048;-83
2024/01/02 02:44:44;;;;;;;12.50;2.70;;;6.20;99.90;;;;;;5091808;28;20071;-84
2024/01/02 02:47:10;;;;;;;7.05;2.58;;;6.30;99.90;;;;;;5093479;28;20050;-86
2024/01/02 02:49:36;;;;;;;11.38;3.10;;;5.70;99.90;;;;;;5092159;28;20040;-85
2024/01/02 02:52:03;;;;;;;16.33;2.92;;;6.20;99.90;;;;;;5092338;28;20110;-85
2024/01/02 02:54:28;;;;;;;11.52;3.10;;;5.70;99.90;;;;;;5092482;28;20500;-84
2024/01/02 02:56:54;;;;;;;16.98;3.85;;;5.70;99.90;;;;;;5090645;28;20044;-84
2024/01/02 02:59:19;;;;;;;12.52;3.40;;;6.30;99.90;;;;;;5092597;28;20544;-84
2024/01/02 03:01:45;;;;;;;14.50;3.83;;;6.70;99.90;;;;;;5092770;28;20079;-84
2024/01/02 03:04:11;;;;;;;14.18;3.53;;;6.70;99.90;;;;;;5091875;28;20048;-84
2024/01/02 03:06:36;;;;;;;12.82;3.53;;;6.40;99.90;;;;;;5090991;28;20051;-84
2024/01/02 03:09:03;;;;;;;12.75;4.65;;;6.50;99.90;;;;;;5092808;28;20052;-84
2024/01/02 03:11:29;;;;;;;14.50;4.10;;;5.80;99.90;;;;;;5057192;28;20051;-83
2024/01/02 03:13:55;;;;;;;9.57;3.40;;;5.80;99.90;;;;;;5075165;28;20044;-84
2024/01/02 03:16:23;;;;;;;17.92;4.32;;;6.30;99.90;;;;;;5072845;28;20393;-84
2024/01/02 03:18:48;;;;;;;13.57;4.35;;;6.40;99.90;;;;;;5074305;28;20112;-84
2024/01/02 03:21:14;;;;;;;14.85;4.28;;;6.10;99.90;;;;;;5074861;28;20036;-84
2024/01/02 03:23:40;;;;;;;13.27;3.97;;;6.20;99.90;;;;;;5058406;28;20461;-84
2024/01/02 03:26:06;;;;;;;10.93;4.05;;;6.70;99.90;;;;;;5074686;28;20047;-84
2024/01/02 03:28:31;;;;;;;12.23;4.03;;;6.20;99.90;;;;;;5090696;28;20044;-84
2024/01/02 03:30:57;;;;;;;14.57;4.05;;;6.10;99.90;;;;;;5091833;28;20040;-84
2024/01/02 03:33:23;;;;;;;11.48;4.10;;;6.50;99.90;;;;;;5092626;28;20051;-84
2024/01/02 03:35:49;;;;;;;16.15;4.47;;;5.90;99.90;;;;;;5074694;28;20052;-84
2024/01/02 03:38:15;;;;;;;11.10;3.50;;;6.80;99.90;;;;;;5072127;28;20055;-84
2024/01/02 03:40:41;;;;;;;17.38;4.47;;;6.70;99.90;;;;;;5073723;28;20561;-83
2024/01/02 03:43:07;;;;;;;15.25;4.90;;;6.30;99.90;;;;;;5092426;28;20087;-84
2024/01/02 03:45:32;;;;;;;13.65;4.00;;;6.00;99.90;;;;;;5057057;28;20040;-84
2024/01/02 03:48:00;;;;;;;12.88;3.60;;;5.90;99.90;;;;;;5057914;28;20052;-84
2024/01/02 03:50:25;;;;;;;15.07;4.00;;;6.20;99.90;;;;;;5073100;28;20065;-84
2024/01/02 03:52:51;;;;;;;15.32;3.88;;;5.90;99.90;;;;;;5057212;28;20119;-84
2024/01/02 03:55:17;;;;;;;12.48;3.67;;;6.50;99.90;;;;;;5092663;28;20048;-83
2024/01/02 03:57:43;;;;;;;9.25;2.78;;;6.50;99.90;;;;;;5092639;28;20391;-83
2024/01/02 04:00:09;;;;;;;9.90;3.30;;;6.30;99.90;;;;;;5090310;28;20051;-83
2024/01/02 04:02:35;;;;;;;12.63;2.95;;;5.90;99.90;;;;;;5073901;28;20135;-83
2024/01/02 04:05:03;;;;;;;10.90;3.10;;;6.60;99.90;;;;;;5092040;28;20043;-83
2024/01/02 04:07:28;;;;;;;10.52;3.05;;;6.00;99.90;;;;;;5082991;28;20228;-84
2024/01/02 04:09:54;;;;;;;14.55;3.63;;;6.00;99.90;;;;;;5094925;28;20593;-83
2024/01/02 04:12:20;;;;;;;8.73;2.55;;;5.90;99.90;;;;;;5114511;28;20039;-83
2024/01/02 04:14:45;;;;;;;8.85;3.03;;;6.00;99.90;;;;;;5133284;28;20047;-83
2024/01/02 04:17:11;;;;;;;10.35;2.28;;;6.00;99.90;;;;;;5114724;28;20092;-84
2024/01/02 04:19:37;;;;;;;14.80;3.17;;;6.10;99.90;;;;;;5114632;28;20447;-83
2024/01/02 04:22:02;;;;;;;5.93;2.15;;;6.20;99.90;;;;;;5121377;28;20048;-84
2024/01/02 04:24:28;;;;;;;9.45;2.60;;;6.00;99.90;;;;;;5094595;28;20484;-83
2024/01/02 04:26:54;;;;;;;11.75;3.15;;;6.10;99.90;;;;;;5094569;28;20471;-84
2024/01/02 04:29:19;;;;;;;10.45;2.92;;;5.90;99.90;;;;;;5093941;28;20050;-83
2024/01/02 04:31:45;;;;;;;9.02;3.03;;;6.30;99.90;;;;;;5093772;28;20044;-84
2024/01/02 04:34:11;;;;;;;11.38;2.92;;;6.00;99.90;;;;;;5121836;28;20044;-84
2024/01/02 04:36:36;;;;;;;12.27;2.78;;;6.40;99.90;;;;;;5077236;28;20445;-84
2024/01/02 04:39:03;;;;;;;12.32;2.70;;;6.00;99.90;;;;;;5077657;28;20043;-85
2024/01/02 04:41:28;;;;;;;9.13;2.30;;;6.40;99.90;;;;;;5112838;28;20468;-83
2024/01/02 04:43:54;;;;;;;12.65;2.78;;;6.50;99.90;;;;;;5090749;28;20061;-84
2024/01/02 04:46:20;;;;;;;8.68;2.20;;;6.00;99.90;;;;;;5092179;28;20043;-84
2024/01/02 04:48:46;;;;;;;7.60;2.45;;;6.00;99.90;;;;;;5099481;28;20392;-84
2024/01/02 04:51:12;;;;;;;11.45;2.72;;;6.20;99.90;;;;;;5093245;28;20135;-84
2024/01/02 04:53:37;;;;;;;10.13;2.90;;;6.00;99.90;;;;;;5113908;28;20100;-83
2024/01/02 04:56:03;;;;;;;10.55;2.20;;;6.00;99.90;;;;;;5095946;28;20086;-83
2024/01/02 04:58:29;;;;;;;9.68;2.30;;;6.00;99.90;;;;;;5093818;28;20051;-83
2024/01/02 05:00:55;;;;;;;6.97;2.10;;;6.60;99.90;;;;;;5094587;28;20086;-83
2024/01/02 05:03:20;;;;;;;6.47;2.50;;;6.10;99.90;;;;;;5096254;28;20046;-84
2024/01/02 05:05:46;;;;;;;8.35;2.85;;;6.80;99.90;;;;;;5115418;28;20040;-83
2024/01/02 05:08:12;;;;;;;10.13;2.10;;;6.10;99.90;;;;;;5097242;28;20060;-83
2024/01/02 05:10:38;;;;;;;12.13;2.38;;;6.30;99.90;;;;;;5097786;28;20435;-83
2024/01/02 05:13:03;;;;;;;8.70;2.25;;;6.00;99.90;;;;;;5080366;28;20145;-84
2024/01/02 05:15:29;;;;;;;4.28;1.73;;;6.00;99.90;;;;;;5097428;28;20048;-85
2024/01/02 05:17:55;;;;;;;8.77;1.77;;;6.10;99.90;;;;;;5079173;28;20043;-85
2024/01/02 05:20:20;;;;;;;7.38;2.05;;;6.10;99.90;;;;;;5095520;28;20129;-83
2024/01/02 05:22:46;;;;;;;7.30;2.03;;;6.40;99.90;;;;;;5085244;28;20105;-83
2024/01/02 05:25:12;;;;;;;8.68;2.45;;;6.90;99.90;;;;;;5097000;28;20039;-83
2024/01/02 05:27:38;;;;;;;8.82;2.00;;;6.60;99.90;;;;;;5097446;28;20154;-84
2024/01/02 05:30:04;;;;;;;10.07;1.73;;;6.60;99.90;;;;;;5096491;28;20505;-83
2024/01/02 05:32:30;;;;;;;6.68;1.75;;;6.10;99.90;;;;;;5115557;28;20039;-84
2024/01/02 05:34:55;;;;;;;4.85;1.58;;;6.10;99.90;;;;;;5121496;27;20037;-83
2024/01/02 05:37:21;;;;;;;7.75;2.15;;;6.10;99.90;;;;;;5080054;28;20240;-83
2024/01/02 05:39:47;;;;;;;6.68;1.60;;;6.10;99.90;;;;;;5076761;28;20051;-83
2024/01/02 05:42:12;;;;;;;4.03;1.40;;;6.10;99.90;;;;;;5060333;28;20408;-83
2024/01/02 05:44:38;;;;;;;3.70;1.50;;;6.40;99.90;;;;;;5067542;28;20075;-83
2024/01/02 05:47:03;;;;;;;5.50;1.60;;;6.10;99.90;;;;;;5124504;27;20073;-83
2024/01/02 05:49:29;;;;;;;4.35;1.23;;;6.10;99.90;;;;;;5099930;27;20074;-84
2024/01/02 05:51:56;;;;;;;4.65;1.45;;;6.20;99.90;;;;;;5114423;28;20039;-83
2024/01/02 05:54:22;;;;;;;4.57;1.40;;;6.80;99.90;;;;;;5079551;28;20130;-84
2024/01/02 05:56:48;;;;;;;6.20;1.52;;;6.40;99.90;;;;;;5097695;27;20147;-84
2024/01/02 05:59:14;;;;;;;2.22;1.13;;;6.70;99.90;;;;;;5135644;27;20051;-83
2024/01/02 06:01:39;;;;;;;4.82;1.10;;;6.80;99.90;;;;;;5135719;27;20051;-83
2024/01/02 06:04:05;;;;;;;4.25;0.95;;;7.00;99.90;;;;;;5117085;27;20047;-85
2024/01/02 06:06:31;;;;;;;5.00;1.00;;;7.00;99.90;;;;;;5116060;27;20040;-84
2024/01/02 06:08:56;;;;;;;3.00;1.50;;;6.30;99.90;;;;;;5116490;27;20044;-85
2024/01/02 06:11:22;;;;;;;2.60;0.90;;;6.10;99.90;;;;;;5099670;27;20047;-86
2024/01/02 06:13:48;;;;;;;4.30;0.98;;;6.50;99.90;;;;;;5116733;27;20081;-85
2024/01/02 06:16:13;;;;;;;4.78;1.00;;;6.70;99.90;;;;;;5135142;27;20126;-86
2024/01/02 06:18:39;;;;;;;3.30;1.05;;;6.10;99.90;;;;;;5099992;28;20042;-84
2024/01/02 06:21:04;;;;;;;4.05;0.75;;;6.70;99.90;;;;;;5096342;28;20490;-85
2024/01/02 06:23:34;;;;;;;4.38;0.85;;;6.50;99.90;;;;;;5114387;28;20139;-85
2024/01/02 06:26:00;;;;;;;2.20;0.68;;;7.00;99.90;;;;;;5096178;28;20247;-84
2024/01/02 06:28:25;;;;;;;2.75;1.10;;;6.50;99.90;;;;;;5095608;28;20062;-85
2024/01/02 06:30:51;;;;;;;3.85;1.00;;;6.20;99.90;;;;;;5121662;27;20052;-85
2024/01/02 06:33:17;;;;;;;4.00;0.98;;;7.10;99.90;;;;;;5079058;28;20499;-84
2024/01/02 06:35:42;;;;;;;1.77;0.63;;;6.80;99.90;;;;;;5093974;28;20484;-85
2024/01/02 06:38:11;;;;;;;4.63;0.70;;;6.90;99.90;;;;;;5095754;28;20044;-85
2024/01/02 06:40:37;;;;;;;1.50;0.60;;;6.80;99.90;;;;;;5094152;28;20460;-84
2024/01/02 06:43:03;;;;;;;2.35;0.70;;;6.20;99.90;;;;;;5122480;27;20108;-85
2024/01/02 06:45:29;;;;;;;1.95;0.70;;;6.10;99.90;;;;;;5110799;28;20032;-84
2024/01/02 06:47:55;;;;;;;1.88;0.57;;;6.10;99.90;;;;;;5113915;28;20043;-84
2024/01/02 06:50:21;;;;;;;1.20;0.50;;;6.70;99.90;;;;;;5096029;27;20487;-85
2024/01/02 06:52:47;;;;;;;3.88;0.63;;;6.70;99.90;;;;;;5115536;27;20031;-85
2024/01/02 06:55:13;;;;;;;2.92;0.60;;;6.10;99.90;;;;;;5115963;27;20084;-84
2024/01/02 06:57:39;;;;;;;2.72;0.70;;;6.10;99.90;;;;;;5116169;27;20373;-86
2024/01/02 07:00:06;;;;;;;2.25;0.50;;;6.40;99.90;;;;;;5108246;28;20072;-85
2024/01/02 07:02:33;;;;;;;2.10;0.50;;;6.20;99.90;;;;;;5076981;28;20131;-84
2024/01/02 07:04:59;;;;;;;3.08;0.43;;;6.40;99.90;;;;;;5093710;28;20196;-84
2024/01/02 07:07:25;;;;;;;0.70;0.40;;;6.90;99.90;;;;;;5086015;28;20078;-85
2024/01/02 07:09:51;;;;;;;1.25;0.60;;;6.30;99.90;;;;;;5113973;27;20487;-85
2024/01/02 07:12:18;;;;;;;2.38;0.50;;;6.10;99.90;;;;;;5091774;28;20518;-84
2024/01/02 07:14:43;;;;;;;0.98;0.50;;;6.40;99.90;;;;;;5112177;27;20134;-83
2024/01/02 07:17:09;;;;;;;2.17;0.40;;;6.10;99.90;;;;;;5094121;28;20079;-86
2024/01/02 07:19:35;;;;;;;1.30;0.60;;;7.00;99.90;;;;;;5120771;27;20043;-85
2024/01/02 07:22:01;;;;;;;0.40;0.40;;;6.90;99.90;;;;;;5094911;28;20047;-85
2024/01/02 07:24:26;;;;;;;1.88;0.50;;;6.80;99.90;;;;;;5094881;28;20039;-85
2024/01/02 07:26:52;;;;;;;2.10;0.60;;;6.40;99.90;;;;;;5095057;28;20043;-84
2024/01/02 07:29:18;;;;;;;0.80;0.50;;;6.50;99.90;;;;;;5111844;28;20127;-85
2024/01/02 07:31:43;;;;;;;2.88;0.50;;;6.80;99.90;;;;;;5092025;28;20105;-84
2024/01/02 07:34:12;;;;;;;3.63;0.50;;;6.30;99.90;;;;;;5094895;28;20051;-84
2024/01/02 07:36:38;;;;;;;2.05;0.40;;;6.20;99.90;;;;;;5077641;28;20484;-83
2024/01/02 07:39:04;;;;;;;0.82;0.40;;;6.20;99.90;;;;;;5099985;28;20048;-84
2024/01/02 07:41:30;;;;;;;0.55;0.50;;;6.30;99.90;;;;;;5102397;28;20150;-84
2024/01/02 07:43:56;;;;;;;0.88;0.47;;;6.70;99.90;;;;;;5094266;28;20035;-84
2024/01/02 07:46:22;;;;;;;1.05;0.40;;;6.80;99.90;;;;;;5094675;28;20052;-85
2024/01/02 07:48:48;;;;;;;0.50;0.47;;;6.60;99.90;;;;;;5114839;27;20042;-84
2024/01/02 07:51:14;;;;;;;0.50;0.50;;;7.00;99.90;;;;;;5085762;28;20032;-84
2024/01/02 07:53:39;;;;;;;0.70;0.50;;;7.30;99.90;;;;;;5084505;28;20492;-85
2024/01/02 07:56:05;;;;;;;0.82;0.50;;;6.40;99.90;;;;;;5094551;28;20044;-85
2024/01/02 07:58:31;;;;;;;0.50;0.40;;;6.40;99.90;;;;;;5113172;28;20052;-84
2024/01/02 08:00:57;;;;;;;0.65;0.40;;;7.20;99.90;;;;;;5113129;28;20050;-84
2024/01/02 08:03:22;;;;;;;0.80;0.47;;;6.70;99.90;;;;;;5112982;28;20118;-84
2024/01/02 08:05:48;;;;;;;1.48;0.65;;;7.20;99.90;;;;;;5094493;28;20039;-84
2024/01/02 08:08:14;;;;;;;0.73;0.60;;;6.70;99.90;;;;;;5112083;28;20047;-84
2024/01/02 08:10:39;;;;;;;0.52;0.50;;;6.60;99.90;;;;;;5094016;28;20050;-85
2024/01/02 08:13:05;;;;;;;2.42;0.60;;;6.80;99.90;;;;;;5077860;28;20043;-84
2024/01/02 08:15:30;;;;;;;0.60;0.40;;;7.20;99.90;;;;;;5084754;28;20373;-84
2024/01/02 08:17:57;;;;;;;0.45;0.43;;;7.40;99.90;;;;;;5073931;28;20500;-84
2024/01/02 08:20:23;;;;;;;0.85;0.40;;;7.00;99.90;;;;;;5057773;28;20075;-84
2024/01/02 08:22:48;;;;;;;1.83;0.47;;;6.60;99.90;;;;;;5103469;28;20072;-83
2024/01/02 08:25:14;;;;;;;4.60;0.52;;;7.30;99.90;;;;;;5105023;28;20130;-83
2024/01/02 08:27:41;;;;;;;0.47;0.40;;;6.60;99.90;;;;;;5112657;28;20039;-84
2024/01/02 08:30:07;;;;;;;0.60;0.50;;;6.60;99.90;;;;;;5093622;28;20052;-84
2024/01/02 08:32:33;;;;;;;1.02;0.60;;;6.10;99.90;;;;;;5121723;28;20071;-85
2024/01/02 08:34:59;;;;;;;0.70;0.60;;;7.30;99.90;;;;;;5094437;28;20518;-85
2024/01/02 08:37:25;;;;;;;0.55;0.50;;;6.60;99.90;;;;;;5097018;28;20517;-84
2024/01/02 08:39:51;;;;;;;0.90;0.70;;;7.40;99.90;;;;;;5116140;28;20051;-85
2024/01/02 08:42:17;;;;;;;1.20;0.80;;;7.50;99.90;;;;;;5098249;28;20476;-85
2024/01/02 08:44:42;;;;;;;2.22;0.90;;;7.50;99.90;;;;;;5116521;28;20126;-85
2024/01/02 08:47:08;;;;;;;3.13;1.10;;;7.60;99.90;;;;;;5116381;28;20040;-83
2024/01/02 08:49:34;;;;;;;2.67;1.20;;;7.30;99.90;;;;;;5096240;28;20047;-83
2024/01/02 08:51:59;;;;;;;1.70;1.00;;;6.70;99.90;;;;;;5081068;28;20509;-83
2024/01/02 08:54:25;;;;;;;3.38;1.00;;;7.60;99.90;;;;;;5093737;28;20051;-83
2024/01/02 08:56:51;;;;;;;2.83;1.25;;;7.40;99.90;;;;;;5094325;28;20044;-83
2024/01/02 08:59:17;;;;;;;2.63;1.20;;;7.90;99.90;;;;;;5106370;28;20051;-82
2024/01/02 09:01:50;;;;;;;4.13;1.27;;;7.70;99.90;;;;;;5097390;28;20097;-83
2024/01/02 09:04:15;;;;;;;3.33;1.50;;;7.40;99.90;;;;;;5115067;28;20071;-83
2024/01/02 09:06:41;;;;;;;7.50;1.58;;;7.70;99.90;;;;;;5097270;28;20525;-84
2024/01/02 09:09:07;;;;;;;7.07;2.10;;;7.10;99.90;;;;;;5115525;27;20221;-84
2024/01/02 09:11:34;;;;;;;9.88;2.22;;;7.90;99.90;;;;;;5112378;28;20407;-84
2024/01/02 09:14:00;;;;;;;6.85;2.47;;;7.20;99.90;;;;;;5097335;28;20510;-84
2024/01/02 09:16:33;;;;;;;8.15;2.58;;;7.30;99.90;;;;;;5097403;28;20127;-83
2024/01/02 09:18:59;;;;;;;15.90;2.70;;;7.40;99.90;;;;;;5097417;28;20054;-84
2024/01/02 09:21:25;;;;;;;14.52;2.75;;;8.00;99.90;;;;;;5097625;28;20047;-85
2024/01/02 09:23:50;;;;;;;11.20;2.88;;;7.80;99.90;;;;;;5105096;27;20506;-84
2024/01/02 09:26:22;;;;;;;12.75;2.97;;;8.20;99.90;;;;;;5117805;27;20035;-83
2024/01/02 09:28:48;;;;;;;15.80;2.53;;;8.80;99.90;;;;;;5117700;27;20043;-83
2024/01/02 09:31:13;;;;;;;23.30;3.00;;;8.00;99.90;;;;;;5117764;27;20046;-84
2024/01/02 09:33:41;;;;;;;15.43;2.30;;;8.70;99.90;;;;;;5100593;27;20040;-84
2024/01/02 09:36:10;;;;;;;16.88;2.50;;;8.70;99.90;;;;;;5117366;27;20039;-84
2024/01/02 09:38:39;;;;;;;21.48;2.38;;;8.20;99.90;;;;;;5117620;27;20043;-84
2024/01/02 09:41:19;;;;;;;20.95;2.63;;;8.60;99.90;;;;;;5117508;27;20468;-84
2024/01/02 09:43:50;;;;;;;16.73;1.67;;;8.30;99.90;;;;;;5131035;27;20042;-84
2024/01/02 09:46:53;;;;;;;16.88;2.25;;;8.40;99.90;;;;;;5096711;28;20130;-84
2024/01/02 09:49:35;;;;;;;10.27;1.42;;;8.40;99.90;;;;;;5115081;28;20056;-84
2024/01/02 09:52:32;;;;;;;17.17;1.52;;;8.50;99.90;;;;;;5096790;28;20051;-84
2024/01/02 09:55:16;;;;;;;20.30;1.80;;;8.60;99.90;;;;;;5096688;28;20036;-85
2024/01/02 09:58:05;;;;;;;36.35;3.38;;;9.20;99.90;;;;;;5096677;28;20051;-84
2024/01/02 10:00:53;;;;;;;24.83;1.60;;;9.30;99.90;;;;;;5083689;28;20438;-84
2024/01/02 10:03:30;;;;;;;23.27;2.17;;;8.80;99.90;;;;;;5096399;28;20051;-84
2024/01/02 10:06:15;;;;;;;23.33;2.42;;;8.70;99.90;;;;;;5096390;28;20039;-89
2024/01/02 10:09:10;;;;;;;20.10;2.13;;;8.80;99.90;;;;;;5095837;28;20108;-84
2024/01/02 10:11:57;;;;;;;20.70;2.53;;;8.90;99.90;;;;;;5096510;28;20043;-83
2024/01/02 10:14:36;;;;;;;32.63;2.60;;;8.90;99.90;;;;;;5079680;28;20062;-84
2024/01/02 10:17:08;;;;;;;30.67;2.63;;;9.50;99.90;;;;;;5096360;28;20051;-84
2024/01/02 10:19:48;;;;;;;24.75;2.22;;;9.00;99.90;;;;;;5092607;28;20044;-83
2024/01/02 10:22:26;;;;;;;18.42;2.08;;;9.70;99.90;;;;;;5120139;27;20092;-84
2024/01/02 10:25:13;;;;;;;23.27;2.00;;;9.00;99.90;;;;;;5130136;27;20044;-84
2024/01/02 10:27:51;;;;;;;22.25;2.25;;;9.10;99.90;;;;;;5114710;28;20040;-85
2024/01/02 10:30:30;;;;;;;17.35;2.20;;;9.10;99.90;;;;;;5113924;28;20047;-85
2024/01/02 10:33:19;;;;;;;14.27;1.95;;;9.10;99.90;;;;;;5114564;28;20403;-83
2024/01/02 10:35:53;;;;;;;19.90;2.35;;;9.20;99.90;;;;;;5095020;28;20484;-84
2024/01/02 10:38:22;;;;;;;30.67;2.88;;;9.20;99.90;;;;;;5076489;28;20545;-84
2024/01/02 10:40:59;;;;;;;21.63;2.10;;;9.20;99.90;;;;;;5075842;28;20055;-84
2024/01/02 10:43:30;;;;;;;28.73;2.58;;;9.30;99.90;;;;;;5075514;28;20043;-84
2024/01/02 10:46:09;;;;;;;26.65;2.35;;;9.20;99.90;;;;;;5093710;28;20044;-83
2024/01/02 10:49:08;;;;;;;22.92;2.20;;;9.40;99.90;;;;;;5075347;28;20044;-84
2024/01/02 10:51:42;;;;;;;21.83;3.20;;;9.40;99.90;;;;;;5078198;27;20484;-85
2024/01/02 10:54:39;;;;;;;27.65;2.75;;;9.50;99.90;;;;;;5116354;27;20114;-84
2024/01/02 10:57:11;;;;;;;27.95;2.65;;;9.50;99.90;;;;;;5094600;28;20043;-84
2024/01/02 10:59:52;;;;;;;24.98;4.53;;;9.70;99.90;;;;;;5077881;28;20560;-85
2024/01/02 11:02:53;;;;;;;29.90;2.63;;;9.60;99.90;;;;;;5095439;28;20411;-84
2024/01/02 11:05:32;;;;;;;23.38;2.95;;;9.60;99.90;;;;;;5011154;28;20061;-84
2024/01/02 11:08:16;;;;;;;24.60;2.92;;;9.70;99.90;;;;;;5010956;28;20065;-84
2024/01/02 11:10:55;;;;;;;28.42;2.55;;;9.70;99.90;;;;;;4994239;28;20058;-84
2024/01/02 11:13:22;;;;;;;24.17;3.42;;;9.70;99.90;;;;;;5011157;28;20081;-84
2024/01/02 11:15:55;;;;;;;27.15;3.38;;;10.00;99.90;;;;;;4978485;28;20060;-85
2024/01/02 11:18:23;;;;;;;29.15;3.17;;;9.80;99.90;;;;;;4994609;28;20502;-85
2024/01/02 11:20:59;;;;;;;33.83;3.25;;;9.80;99.90;;;;;;4994306;28;20041;-84
2024/01/02 11:23:29;;;;;;;33.05;3.58;;;9.90;99.90;;;;;;5010978;28;20093;-84
2024/01/02 11:26:15;;;;;;;30.38;3.58;;;10.00;99.90;;;;;;4990815;28;20043;-84
2024/01/02 11:28:44;;;;;;;22.75;2.75;;;10.00;99.90;;;;;;4991202;28;20129;-83
2024/01/02 11:31:13;;;;;;;26.92;3.85;;;10.00;99.90;;;;;;4975144;28;20113;-85
2024/01/02 11:33:55;;;;;;;24.63;4.13;;;10.40;99.90;;;;;;4959161;28;20043;-84
2024/01/02 11:36:58;;;;;;;24.48;3.20;;;10.00;99.90;;;;;;4990171;28;20574;-84
2024/01/02 11:39:29;;;;;;;32.83;3.63;;;10.10;99.90;;;;;;4975011;28;20399;-84
2024/01/02 11:42:25;;;;;;;33.13;3.67;;;10.10;99.90;;;;;;5011273;28;20492;-84
2024/01/02 11:45:13;;;;;;;29.10;3.58;;;9.80;99.90;;;;;;5077742;28;20052;-84
2024/01/02 11:47:57;;;;;;;20.20;3.63;;;10.10;99.90;;;;;;5071565;28;20037;-85
2024/01/02 11:50:31;;;;;;;20.85;2.95;;;10.20;99.90;;;;;;5073114;28;20044;-84
2024/01/02 11:53:15;;;;;;;24.92;3.47;;;10.20;99.90;;;;;;5085389;28;20039;-84
2024/01/02 11:56:03;;;;;;;23.23;2.55;;;10.20;99.90;;;;;;5087310;28;20067;-85
2024/01/02 11:59:08;;;;;;;31.95;3.85;;;10.20;99.90;;;;;;5074737;28;20040;-85
2024/01/02 12:02:14;;;;;;;24.27;4.05;;;10.20;99.90;;;;;;5091338;28;20083;-86
2024/01/02 12:04:55;;;;;;;24.92;3.10;;;10.20;99.90;;;;;;5014343;28;20415;-85
2024/01/02 12:07:27;;;;;;;29.33;3.78;;;10.20;99.90;;;;;;5013696;28;20434;-84
2024/01/02 12:09:54;;;;;;;27.15;3.70;;;10.20;99.90;;;;;;5012987;28;20076;-83
2024/01/02 12:12:48;;;;;;;26.17;3.47;;;10.50;99.90;;;;;;5013580;28;20048;-86
2024/01/02 12:15:33;;;;;;;22.27;3.03;;;10.20;99.90;;;;;;5017510;28;20195;-86
2024/01/02 12:18:02;;;;;;;18.13;2.88;;;10.20;99.90;;;;;;5022181;28;20618;-86
2024/01/02 12:20:35;;;;;;;23.77;2.50;;;10.20;99.90;;;;;;5034004;28;20498;-85
2024/01/02 12:23:02;;;;;;;22.27;3.60;;;10.60;99.90;;;;;;5000924;28;20050;-84
2024/01/02 12:25:28;;;;;;;28.70;4.90;;;10.20;99.90;;;;;;5032398;28;20164;-87
2024/01/02 12:27:57;;;;;;;27.38;5.88;;;10.20;99.90;;;;;;5017885;28;20533;-84
2024/01/02 12:30:34;;;;;;;32.38;8.07;;;10.60;99.90;;;;;;5017321;28;20045;-84
2024/01/02 12:33:23;;;;;;;40.60;9.55;;;10.80;99.90;;;;;;5034091;28;20053;-84
2024/01/02 12:36:06;;;;;;;32.00;8.63;;;10.20;99.90;;;;;;5033720;28;20049;-83
2024/01/02 12:38:58;;;;;;;45.03;10.70;;;10.20;99.90;;;;;;5012857;28;20127;-84
2024/01/02 12:41:32;;;;;;;33.75;10.02;;;10.20;99.90;;;;;;5003923;28;20049;-85
2024/01/02 12:43:59;;;;;;;37.30;10.55;;;10.20;99.90;;;;;;5047460;28;20056;-84
2024/01/02 12:46:39;;;;;;;33.00;9.23;;;10.30;99.90;;;;;;5073225;28;20056;-85
2024/01/02 12:49:09;;;;;;;27.92;8.68;;;10.20;99.90;;;;;;5073574;28;20049;-86
2024/01/02 12:51:37;;;;;;;34.15;7.60;;;10.10;99.90;;;;;;5054682;28;20084;-84
2024/01/02 12:54:04;;;;;;;45.90;9.35;;;10.60;99.90;;;;;;5053928;28;20400;-84
2024/01/02 12:56:34;;;;;;;35.75;8.90;;;10.10;99.90;;;;;;5057094;28;20044;-84
2024/01/02 12:59:04;;;;;;;46.10;8.63;;;10.20;99.90;;;;;;5073154;28;20135;-84
2024/01/02 13:01:30;;;;;;;37.55;8.30;;;10.20;99.90;;;;;;5056855;28;20041;-84